San Luis, Colorado
Current Conditions -  °F | °C
As of 2:12 AM on Friday 24 Oct 2014 (Local Time) from KVTP Reporting Station
Clear Clear  
Wind Chill: 34°   Ceiling: Unl
Heat Index: 43°   Visibility: 10mi
Dew Point: 28°   Wind: 20mph
Humidity: 57%   Direction: 190°S
Pressure: 30.44"   Gusts: 28mph
Location:  37.2°N, 105.42°W
Report Text: KVTP 240812Z AUTO 19017G24KT 10SM CLR 06/M02 A3044 RMK AO2
Loading
Personal Weather Stations






























Interactive Weather Map
Tropical Storm Tracking
New forecast layout! Learn more

10-Day Weather Forecast

Advertisements
Track Severe Weather on mobile